sensor_id;sensor_type;location;lat;lon;timestamp;pressure;altitude;pressure_sealevel;temperature;humidity
82148;BME280;71718;50.480;12.110;2023-08-24T00:00:15;98009.00;;;20.23;59.79
82148;BME280;71718;50.480;12.110;2023-08-24T00:02:42;98009.97;;;20.17;59.96
82148;BME280;71718;50.480;12.110;2023-08-24T00:05:08;98028.81;;;20.09;59.99
82148;BME280;71718;50.480;12.110;2023-08-24T00:07:34;98020.59;;;20.05;60.15
82148;BME280;71718;50.480;12.110;2023-08-24T00:10:01;98019.50;;;20.01;59.92
82148;BME280;71718;50.480;12.110;2023-08-24T00:12:27;98013.66;;;19.94;60.44
82148;BME280;71718;50.480;12.110;2023-08-24T00:14:54;98022.84;;;19.97;60.26
82148;BME280;71718;50.480;12.110;2023-08-24T00:17:20;98015.41;;;19.88;60.11
82148;BME280;71718;50.480;12.110;2023-08-24T00:19:46;98008.41;;;19.77;60.33
82148;BME280;71718;50.480;12.110;2023-08-24T00:22:13;98005.78;;;19.77;60.60
82148;BME280;71718;50.480;12.110;2023-08-24T00:24:39;98007.84;;;19.75;60.63
82148;BME280;71718;50.480;12.110;2023-08-24T00:27:05;98007.56;;;19.72;60.79
82148;BME280;71718;50.480;12.110;2023-08-24T00:29:32;98011.44;;;19.69;60.78
82148;BME280;71718;50.480;12.110;2023-08-24T00:31:58;98013.03;;;19.70;60.62
82148;BME280;71718;50.480;12.110;2023-08-24T00:34:25;98006.97;;;19.70;60.56
82148;BME280;71718;50.480;12.110;2023-08-24T00:36:51;98003.69;;;19.58;60.74
82148;BME280;71718;50.480;12.110;2023-08-24T00:39:18;98005.97;;;19.54;60.72
82148;BME280;71718;50.480;12.110;2023-08-24T00:41:44;98002.00;;;19.51;60.90
82148;BME280;71718;50.480;12.110;2023-08-24T00:44:10;98007.72;;;19.48;60.88
82148;BME280;71718;50.480;12.110;2023-08-24T00:46:37;98006.03;;;19.42;60.94
82148;BME280;71718;50.480;12.110;2023-08-24T00:49:03;98007.78;;;19.37;61.07
82148;BME280;71718;50.480;12.110;2023-08-24T00:51:30;98011.44;;;19.36;61.07
82148;BME280;71718;50.480;12.110;2023-08-24T00:53:56;98012.69;;;19.33;60.94
82148;BME280;71718;50.480;12.110;2023-08-24T00:56:23;98013.69;;;19.27;61.26
82148;BME280;71718;50.480;12.110;2023-08-24T00:58:50;98006.97;;;19.20;61.48
82148;BME280;71718;50.480;12.110;2023-08-24T01:01:17;98011.34;;;19.14;61.58
82148;BME280;71718;50.480;12.110;2023-08-24T01:03:44;98018.91;;;19.10;61.60
82148;BME280;71718;50.480;12.110;2023-08-24T01:06:10;98022.47;;;19.04;61.55
82148;BME280;71718;50.480;12.110;2023-08-24T01:08:37;98026.16;;;18.92;61.56
82148;BME280;71718;50.480;12.110;2023-08-24T01:11:14;98023.81;;;18.90;61.96
82148;BME280;71718;50.480;12.110;2023-08-24T01:14:04;98019.97;;;18.98;61.75
82148;BME280;71718;50.480;12.110;2023-08-24T01:16:33;98024.44;;;18.97;61.54
82148;BME280;71718;50.480;12.110;2023-08-24T01:19:01;98023.63;;;18.97;61.38
82148;BME280;71718;50.480;12.110;2023-08-24T01:21:31;98021.25;;;18.95;61.59
82148;BME280;71718;50.480;12.110;2023-08-24T01:24:12;98021.56;;;18.99;61.33
82148;BME280;71718;50.480;12.110;2023-08-24T01:26:40;98015.75;;;18.97;61.31
82148;BME280;71718;50.480;12.110;2023-08-24T01:29:07;98012.50;;;18.90;61.49
82148;BME280;71718;50.480;12.110;2023-08-24T01:31:34;98017.88;;;18.83;61.34
82148;BME280;71718;50.480;12.110;2023-08-24T01:34:01;98007.31;;;18.78;61.35
82148;BME280;71718;50.480;12.110;2023-08-24T01:36:28;98008.25;;;18.72;61.83
82148;BME280;71718;50.480;12.110;2023-08-24T01:39:02;98010.31;;;18.70;61.78
82148;BME280;71718;50.480;12.110;2023-08-24T01:41:35;98016.59;;;18.69;61.79
82148;BME280;71718;50.480;12.110;2023-08-24T01:44:03;98015.56;;;18.70;61.73
82148;BME280;71718;50.480;12.110;2023-08-24T01:46:31;98011.00;;;18.65;61.57
82148;BME280;71718;50.480;12.110;2023-08-24T01:49:02;98005.13;;;18.58;61.87
82148;BME280;71718;50.480;12.110;2023-08-24T01:51:30;98009.25;;;18.54;61.79
82148;BME280;71718;50.480;12.110;2023-08-24T01:53:57;98013.44;;;18.55;61.95
82148;BME280;71718;50.480;12.110;2023-08-24T01:56:23;98007.53;;;18.48;62.13
82148;BME280;71718;50.480;12.110;2023-08-24T01:58:50;98005.13;;;18.47;61.94
82148;BME280;71718;50.480;12.110;2023-08-24T02:01:16;98004.91;;;18.48;61.80
82148;BME280;71718;50.480;12.110;2023-08-24T02:03:43;98000.78;;;18.52;61.76
82148;BME280;71718;50.480;12.110;2023-08-24T02:06:09;97995.88;;;18.56;61.49
82148;BME280;71718;50.480;12.110;2023-08-24T02:08:36;98005.00;;;18.53;61.54
82148;BME280;71718;50.480;12.110;2023-08-24T02:11:02;97998.53;;;18.44;61.54
82148;BME280;71718;50.480;12.110;2023-08-24T02:16:07;97991.41;;;18.28;61.93
82148;BME280;71718;50.480;12.110;2023-08-24T02:18:34;97994.94;;;18.22;62.36
82148;BME280;71718;50.480;12.110;2023-08-24T02:21:07;97988.22;;;18.26;62.09
82148;BME280;71718;50.480;12.110;2023-08-24T02:23:33;97987.88;;;18.22;62.10
82148;BME280;71718;50.480;12.110;2023-08-24T02:25:59;97980.34;;;18.26;62.10
82148;BME280;71718;50.480;12.110;2023-08-24T02:28:26;97976.13;;;18.25;61.87
82148;BME280;71718;50.480;12.110;2023-08-24T02:30:52;97978.91;;;18.18;62.04
82148;BME280;71718;50.480;12.110;2023-08-24T02:33:18;97969.00;;;18.09;62.16
82148;BME280;71718;50.480;12.110;2023-08-24T02:35:48;97976.84;;;18.09;62.37
82148;BME280;71718;50.480;12.110;2023-08-24T02:38:14;97976.63;;;18.10;62.25
82148;BME280;71718;50.480;12.110;2023-08-24T02:40:40;97981.06;;;18.10;62.21
82148;BME280;71718;50.480;12.110;2023-08-24T02:43:07;97980.75;;;18.06;62.27
82148;BME280;71718;50.480;12.110;2023-08-24T02:45:33;97975.94;;;18.03;62.16
82148;BME280;71718;50.480;12.110;2023-08-24T02:48:00;97975.94;;;18.03;62.25
82148;BME280;71718;50.480;12.110;2023-08-24T02:50:26;97964.81;;;17.96;62.18
82148;BME280;71718;50.480;12.110;2023-08-24T02:52:53;97969.84;;;17.86;62.63
82148;BME280;71718;50.480;12.110;2023-08-24T02:55:19;97965.84;;;17.83;62.56
82148;BME280;71718;50.480;12.110;2023-08-24T02:57:45;97965.53;;;17.92;62.33
82148;BME280;71718;50.480;12.110;2023-08-24T03:00:12;97973.50;;;17.85;62.17
82148;BME280;71718;50.480;12.110;2023-08-24T03:02:38;97976.00;;;17.68;62.78
82148;BME280;71718;50.480;12.110;2023-08-24T03:05:05;97972.16;;;17.59;63.25
82148;BME280;71718;50.480;12.110;2023-08-24T03:07:31;97974.28;;;17.62;63.17
82148;BME280;71718;50.480;12.110;2023-08-24T03:09:58;97972.94;;;17.60;62.86
82148;BME280;71718;50.480;12.110;2023-08-24T03:12:24;97971.94;;;17.61;62.96
82148;BME280;71718;50.480;12.110;2023-08-24T03:14:52;97974.41;;;17.56;63.01
82148;BME280;71718;50.480;12.110;2023-08-24T03:17:18;97972.22;;;17.53;63.09
82148;BME280;71718;50.480;12.110;2023-08-24T03:19:45;97974.63;;;17.54;63.24
82148;BME280;71718;50.480;12.110;2023-08-24T03:22:11;97971.78;;;17.56;63.23
82148;BME280;71718;50.480;12.110;2023-08-24T03:24:38;97965.88;;;17.60;63.23
82148;BME280;71718;50.480;12.110;2023-08-24T03:27:04;97960.31;;;17.68;62.97
82148;BME280;71718;50.480;12.110;2023-08-24T03:29:30;97963.72;;;17.69;62.82
82148;BME280;71718;50.480;12.110;2023-08-24T03:31:57;97965.75;;;17.67;62.65
82148;BME280;71718;50.480;12.110;2023-08-24T03:34:23;97968.03;;;17.63;62.65
82148;BME280;71718;50.480;12.110;2023-08-24T03:36:49;97963.56;;;17.52;63.15
82148;BME280;71718;50.480;12.110;2023-08-24T03:39:16;97960.63;;;17.49;63.13
82148;BME280;71718;50.480;12.110;2023-08-24T03:41:42;97966.31;;;17.46;63.19
82148;BME280;71718;50.480;12.110;2023-08-24T03:44:09;97966.22;;;17.40;63.35
82148;BME280;71718;50.480;12.110;2023-08-24T03:46:35;97967.44;;;17.38;63.29
82148;BME280;71718;50.480;12.110;2023-08-24T03:49:02;97970.84;;;17.27;63.39
82148;BME280;71718;50.480;12.110;2023-08-24T03:51:28;97971.41;;;17.17;63.68
82148;BME280;71718;50.480;12.110;2023-08-24T03:53:54;97970.47;;;17.12;63.94
82148;BME280;71718;50.480;12.110;2023-08-24T03:56:21;97967.88;;;17.12;63.99
82148;BME280;71718;50.480;12.110;2023-08-24T03:58:47;97968.78;;;17.17;63.72
82148;BME280;71718;50.480;12.110;2023-08-24T04:01:13;97965.06;;;17.25;63.44
82148;BME280;71718;50.480;12.110;2023-08-24T04:03:40;97970.84;;;17.27;63.08
82148;BME280;71718;50.480;12.110;2023-08-24T04:06:06;97971.84;;;17.26;63.37
82148;BME280;71718;50.480;12.110;2023-08-24T04:08:33;97970.50;;;17.23;63.29
82148;BME280;71718;50.480;12.110;2023-08-24T04:10:59;97969.81;;;17.28;62.94
82148;BME280;71718;50.480;12.110;2023-08-24T04:13:25;97971.53;;;17.34;62.78
82148;BME280;71718;50.480;12.110;2023-08-24T04:15:52;97983.94;;;17.38;62.64
82148;BME280;71718;50.480;12.110;2023-08-24T04:18:19;97985.66;;;17.45;62.33
82148;BME280;71718;50.480;12.110;2023-08-24T04:20:45;97985.41;;;17.46;62.34
82148;BME280;71718;50.480;12.110;2023-08-24T04:23:13;97988.59;;;17.48;61.98
82148;BME280;71718;50.480;12.110;2023-08-24T04:25:40;97988.72;;;17.41;62.25
82148;BME280;71718;50.480;12.110;2023-08-24T04:28:06;97989.75;;;17.40;62.33
82148;BME280;71718;50.480;12.110;2023-08-24T04:30:33;97983.03;;;17.33;62.29
82148;BME280;71718;50.480;12.110;2023-08-24T04:32:59;97986.91;;;17.30;62.53
82148;BME280;71718;50.480;12.110;2023-08-24T04:35:25;97979.19;;;17.35;62.20
82148;BME280;71718;50.480;12.110;2023-08-24T04:37:52;97979.19;;;17.35;62.19
82148;BME280;71718;50.480;12.110;2023-08-24T04:40:19;97988.16;;;17.39;62.05
82148;BME280;71718;50.480;12.110;2023-08-24T04:42:45;97988.28;;;17.45;61.78
82148;BME280;71718;50.480;12.110;2023-08-24T04:45:11;97978.47;;;17.52;61.60
82148;BME280;71718;50.480;12.110;2023-08-24T04:47:38;97977.03;;;17.56;61.26
82148;BME280;71718;50.480;12.110;2023-08-24T04:50:05;97975.19;;;17.56;61.16
82148;BME280;71718;50.480;12.110;2023-08-24T04:52:31;97968.94;;;17.69;60.75
82148;BME280;71718;50.480;12.110;2023-08-24T04:54:57;97965.84;;;17.83;60.15
82148;BME280;71718;50.480;12.110;2023-08-24T04:57:24;97963.22;;;18.07;59.52
82148;BME280;71718;50.480;12.110;2023-08-24T04:59:51;97963.72;;;18.32;58.82
82148;BME280;71718;50.480;12.110;2023-08-24T05:02:17;97963.63;;;18.55;57.99
82148;BME280;71718;50.480;12.110;2023-08-24T05:04:43;97968.56;;;18.80;57.16
82148;BME280;71718;50.480;12.110;2023-08-24T05:07:10;97973.88;;;19.02;56.60
82148;BME280;71718;50.480;12.110;2023-08-24T05:09:36;97978.13;;;19.20;55.89
82148;BME280;71718;50.480;12.110;2023-08-24T05:12:03;97969.59;;;19.29;55.81
82148;BME280;71718;50.480;12.110;2023-08-24T05:14:29;97977.16;;;19.42;55.39
82148;BME280;71718;50.480;12.110;2023-08-24T05:16:57;97973.50;;;19.60;54.81
82148;BME280;71718;50.480;12.110;2023-08-24T05:19:24;97975.31;;;19.76;54.22
82148;BME280;71718;50.480;12.110;2023-08-24T05:21:52;97978.63;;;19.88;54.05
82148;BME280;71718;50.480;12.110;2023-08-24T05:24:19;97977.53;;;20.06;53.69
82148;BME280;71718;50.480;12.110;2023-08-24T05:26:45;97977.97;;;20.20;53.37
82148;BME280;71718;50.480;12.110;2023-08-24T05:29:11;97980.00;;;20.34;53.07
82148;BME280;71718;50.480;12.110;2023-08-24T05:31:38;97973.28;;;20.44;52.80
82148;BME280;71718;50.480;12.110;2023-08-24T05:34:04;97973.44;;;20.59;52.34
82148;BME280;71718;50.480;12.110;2023-08-24T05:36:30;97974.88;;;20.71;51.95
82148;BME280;71718;50.480;12.110;2023-08-24T05:38:57;97977.34;;;20.83;51.51
82148;BME280;71718;50.480;12.110;2023-08-24T05:41:26;97980.56;;;20.90;51.12
82148;BME280;71718;50.480;12.110;2023-08-24T05:43:52;97969.25;;;20.90;51.86
82148;BME280;71718;50.480;12.110;2023-08-24T05:46:19;97968.47;;;20.89;51.85
82148;BME280;71718;50.480;12.110;2023-08-24T05:48:45;97965.06;;;20.94;51.53
82148;BME280;71718;50.480;12.110;2023-08-24T05:51:12;97963.75;;;20.91;51.69
82148;BME280;71718;50.480;12.110;2023-08-24T05:53:38;97958.25;;;20.66;52.55
82148;BME280;71718;50.480;12.110;2023-08-24T05:56:04;97957.94;;;20.62;52.47
82148;BME280;71718;50.480;12.110;2023-08-24T05:58:31;97958.22;;;20.61;52.93
82148;BME280;71718;50.480;12.110;2023-08-24T06:01:00;97963.19;;;20.62;53.19
82148;BME280;71718;50.480;12.110;2023-08-24T06:03:27;97964.56;;;20.65;52.98
82148;BME280;71718;50.480;12.110;2023-08-24T06:05:53;97962.47;;;20.67;52.75
82148;BME280;71718;50.480;12.110;2023-08-24T06:08:20;97965.13;;;20.67;52.91
82148;BME280;71718;50.480;12.110;2023-08-24T06:10:46;97964.03;;;20.68;53.33
82148;BME280;71718;50.480;12.110;2023-08-24T06:13:13;97965.88;;;20.67;53.35
82148;BME280;71718;50.480;12.110;2023-08-24T06:15:40;97966.25;;;20.76;52.94
82148;BME280;71718;50.480;12.110;2023-08-24T06:18:06;97959.47;;;20.85;52.73
82148;BME280;71718;50.480;12.110;2023-08-24T06:20:32;97963.78;;;20.96;52.65
82148;BME280;71718;50.480;12.110;2023-08-24T06:22:59;97948.34;;;21.05;52.30
82148;BME280;71718;50.480;12.110;2023-08-24T06:25:25;97949.47;;;21.14;52.24
82148;BME280;71718;50.480;12.110;2023-08-24T06:27:52;97940.34;;;21.22;52.09
82148;BME280;71718;50.480;12.110;2023-08-24T06:30:18;97936.75;;;21.33;51.74
82148;BME280;71718;50.480;12.110;2023-08-24T06:32:45;97938.63;;;21.42;51.34
82148;BME280;71718;50.480;12.110;2023-08-24T06:35:11;97930.28;;;21.55;51.54
82148;BME280;71718;50.480;12.110;2023-08-24T06:37:38;97922.94;;;21.62;51.58
82148;BME280;71718;50.480;12.110;2023-08-24T06:40:05;97920.38;;;21.73;51.27
82148;BME280;71718;50.480;12.110;2023-08-24T06:42:31;97921.16;;;21.73;51.59
82148;BME280;71718;50.480;12.110;2023-08-24T06:44:57;97913.03;;;21.80;50.90
82148;BME280;71718;50.480;12.110;2023-08-24T06:47:24;97918.88;;;21.92;50.87
82148;BME280;71718;50.480;12.110;2023-08-24T06:49:50;97913.69;;;22.02;50.58
82148;BME280;71718;50.480;12.110;2023-08-24T06:52:17;97914.78;;;22.11;50.87
82148;BME280;71718;50.480;12.110;2023-08-24T06:54:43;97908.19;;;22.19;51.28
82148;BME280;71718;50.480;12.110;2023-08-24T06:57:09;97911.41;;;22.36;50.68
82148;BME280;71718;50.480;12.110;2023-08-24T06:59:36;97918.03;;;22.49;50.54
82148;BME280;71718;50.480;12.110;2023-08-24T07:02:02;97912.50;;;22.55;50.40
82148;BME280;71718;50.480;12.110;2023-08-24T07:04:29;97923.06;;;22.65;50.29
82148;BME280;71718;50.480;12.110;2023-08-24T07:06:55;97919.94;;;22.78;50.25
82148;BME280;71718;50.480;12.110;2023-08-24T07:09:21;97914.13;;;22.86;49.91
82148;BME280;71718;50.480;12.110;2023-08-24T07:11:48;97917.56;;;22.97;50.00
82148;BME280;71718;50.480;12.110;2023-08-24T07:14:15;97914.91;;;23.07;50.07
82148;BME280;71718;50.480;12.110;2023-08-24T07:16:41;97916.50;;;23.23;49.29
82148;BME280;71718;50.480;12.110;2023-08-24T07:19:07;97915.66;;;23.38;49.48
82148;BME280;71718;50.480;12.110;2023-08-24T07:21:34;97917.53;;;23.48;49.97
82148;BME280;71718;50.480;12.110;2023-08-24T07:24:00;97915.63;;;23.63;49.57
82148;BME280;71718;50.480;12.110;2023-08-24T07:26:26;97923.81;;;23.77;48.81
82148;BME280;71718;50.480;12.110;2023-08-24T07:28:53;97923.78;;;23.82;49.25
82148;BME280;71718;50.480;12.110;2023-08-24T07:31:19;97913.66;;;23.94;49.30
82148;BME280;71718;50.480;12.110;2023-08-24T07:33:46;97912.28;;;24.12;48.29
82148;BME280;71718;50.480;12.110;2023-08-24T07:36:12;97918.88;;;24.25;48.60
82148;BME280;71718;50.480;12.110;2023-08-24T07:38:39;97909.00;;;24.40;48.77
82148;BME280;71718;50.480;12.110;2023-08-24T07:41:05;97904.66;;;24.54;47.69
82148;BME280;71718;50.480;12.110;2023-08-24T07:43:32;97902.19;;;24.68;47.70
82148;BME280;71718;50.480;12.110;2023-08-24T07:45:59;97904.13;;;24.96;48.85
82148;BME280;71718;50.480;12.110;2023-08-24T07:48:25;97903.41;;;25.15;50.85
82148;BME280;71718;50.480;12.110;2023-08-24T07:50:52;97909.53;;;25.10;47.01
82148;BME280;71718;50.480;12.110;2023-08-24T07:53:18;97906.75;;;24.96;47.75
82148;BME280;71718;50.480;12.110;2023-08-24T07:55:45;97912.63;;;25.22;48.85
82148;BME280;71718;50.480;12.110;2023-08-24T07:58:11;97908.00;;;25.33;46.53
82148;BME280;71718;50.480;12.110;2023-08-24T08:00:37;97911.56;;;25.47;45.90
82148;BME280;71718;50.480;12.110;2023-08-24T08:03:04;97900.38;;;25.55;45.87
82148;BME280;71718;50.480;12.110;2023-08-24T08:05:30;97890.69;;;25.69;46.45
82148;BME280;71718;50.480;12.110;2023-08-24T08:07:57;97884.91;;;25.86;45.94
82148;BME280;71718;50.480;12.110;2023-08-24T08:10:23;97887.44;;;25.96;45.10
82148;BME280;71718;50.480;12.110;2023-08-24T08:12:49;97893.22;;;26.22;49.46
82148;BME280;71718;50.480;12.110;2023-08-24T08:15:16;97891.78;;;26.30;48.42
82148;BME280;71718;50.480;12.110;2023-08-24T08:17:42;97899.34;;;26.41;46.00
82148;BME280;71718;50.480;12.110;2023-08-24T08:20:09;97899.66;;;26.53;45.28
82148;BME280;71718;50.480;12.110;2023-08-24T08:22:36;97900.81;;;26.66;44.55
82148;BME280;71718;50.480;12.110;2023-08-24T08:25:02;97902.81;;;26.74;44.04
82148;BME280;71718;50.480;12.110;2023-08-24T08:27:29;97903.09;;;26.91;47.31
82148;BME280;71718;50.480;12.110;2023-08-24T08:29:55;97904.22;;;27.04;44.88
82148;BME280;71718;50.480;12.110;2023-08-24T08:32:22;97899.19;;;27.02;44.41
82148;BME280;71718;50.480;12.110;2023-08-24T08:34:48;97894.22;;;27.15;44.76
82148;BME280;71718;50.480;12.110;2023-08-24T08:37:14;97895.19;;;27.19;43.52
82148;BME280;71718;50.480;12.110;2023-08-24T08:39:41;97899.91;;;27.22;43.19
82148;BME280;71718;50.480;12.110;2023-08-24T08:42:11;97899.44;;;27.33;42.64
82148;BME280;71718;50.480;12.110;2023-08-24T08:44:38;97910.69;;;27.44;42.99
82148;BME280;71718;50.480;12.110;2023-08-24T08:47:04;97914.59;;;27.46;42.63
82148;BME280;71718;50.480;12.110;2023-08-24T08:49:31;97906.00;;;27.55;43.43
82148;BME280;71718;50.480;12.110;2023-08-24T08:51:58;97907.06;;;27.54;44.54
82148;BME280;71718;50.480;12.110;2023-08-24T08:54:25;97902.16;;;27.61;42.94
82148;BME280;71718;50.480;12.110;2023-08-24T08:56:52;97884.91;;;27.85;44.50
82148;BME280;71718;50.480;12.110;2023-08-24T08:59:19;97892.16;;;28.07;43.25
82148;BME280;71718;50.480;12.110;2023-08-24T09:01:46;97900.06;;;28.12;42.26
82148;BME280;71718;50.480;12.110;2023-08-24T09:04:13;97900.09;;;28.35;43.11
82148;BME280;71718;50.480;12.110;2023-08-24T09:06:39;97895.16;;;28.42;42.22
82148;BME280;71718;50.480;12.110;2023-08-24T09:09:06;97889.22;;;28.45;41.24
82148;BME280;71718;50.480;12.110;2023-08-24T09:11:33;97878.88;;;28.65;39.61
82148;BME280;71718;50.480;12.110;2023-08-24T09:14:00;97878.19;;;28.73;40.78
82148;BME280;71718;50.480;12.110;2023-08-24T09:16:29;97876.25;;;28.88;40.61
82148;BME280;71718;50.480;12.110;2023-08-24T09:18:56;97876.06;;;28.84;40.90
82148;BME280;71718;50.480;12.110;2023-08-24T09:21:23;97873.25;;;29.11;38.33
82148;BME280;71718;50.480;12.110;2023-08-24T09:23:54;97879.34;;;29.34;38.10
82148;BME280;71718;50.480;12.110;2023-08-24T09:26:31;97874.66;;;29.40;38.14
82148;BME280;71718;50.480;12.110;2023-08-24T09:28:58;97872.50;;;29.50;39.22
82148;BME280;71718;50.480;12.110;2023-08-24T09:31:35;97866.25;;;29.55;38.81
82148;BME280;71718;50.480;12.110;2023-08-24T09:34:01;97860.19;;;29.80;38.99
82148;BME280;71718;50.480;12.110;2023-08-24T09:36:31;97853.91;;;29.85;35.63
82148;BME280;71718;50.480;12.110;2023-08-24T09:38:58;97850.97;;;29.38;37.47
82148;BME280;71718;50.480;12.110;2023-08-24T09:41:40;97852.34;;;28.96;38.49
82148;BME280;71718;50.480;12.110;2023-08-24T09:44:08;97847.03;;;28.60;39.42
82148;BME280;71718;50.480;12.110;2023-08-24T09:46:35;97851.78;;;28.41;40.84
82148;BME280;71718;50.480;12.110;2023-08-24T09:49:04;97839.13;;;28.47;41.95
82148;BME280;71718;50.480;12.110;2023-08-24T09:51:31;97846.94;;;28.65;41.11
82148;BME280;71718;50.480;12.110;2023-08-24T09:53:58;97840.00;;;28.78;38.77
82148;BME280;71718;50.480;12.110;2023-08-24T09:56:28;97833.47;;;28.84;38.06
82148;BME280;71718;50.480;12.110;2023-08-24T09:58:57;97822.28;;;28.73;39.77
82148;BME280;71718;50.480;12.110;2023-08-24T10:01:26;97814.63;;;28.58;39.18
82148;BME280;71718;50.480;12.110;2023-08-24T10:03:54;97784.88;;;28.34;40.50
82148;BME280;71718;50.480;12.110;2023-08-24T10:06:27;97781.88;;;28.36;43.76
82148;BME280;71718;50.480;12.110;2023-08-24T10:08:55;97781.72;;;28.54;41.66
82148;BME280;71718;50.480;12.110;2023-08-24T10:11:27;97763.88;;;28.55;40.42
82148;BME280;71718;50.480;12.110;2023-08-24T10:14:13;97753.03;;;28.51;40.34
82148;BME280;71718;50.480;12.110;2023-08-24T10:16:43;97753.09;;;28.38;39.66
82148;BME280;71718;50.480;12.110;2023-08-24T10:19:10;97754.38;;;28.18;41.60
82148;BME280;71718;50.480;12.110;2023-08-24T10:21:38;97744.13;;;28.11;41.15
82148;BME280;71718;50.480;12.110;2023-08-24T10:24:05;97745.44;;;28.00;41.11
82148;BME280;71718;50.480;12.110;2023-08-24T10:26:32;97750.59;;;27.97;42.40
82148;BME280;71718;50.480;12.110;2023-08-24T10:28:59;97759.06;;;27.99;40.57
82148;BME280;71718;50.480;12.110;2023-08-24T10:31:27;97757.38;;;28.03;44.27
82148;BME280;71718;50.480;12.110;2023-08-24T10:33:55;97750.47;;;28.02;44.20
82148;BME280;71718;50.480;12.110;2023-08-24T10:36:22;97747.41;;;28.08;46.20
82148;BME280;71718;50.480;12.110;2023-08-24T10:38:49;97745.91;;;28.16;42.47
82148;BME280;71718;50.480;12.110;2023-08-24T10:41:16;97727.56;;;28.37;42.07
82148;BME280;71718;50.480;12.110;2023-08-24T10:43:48;97723.31;;;28.58;40.95
82148;BME280;71718;50.480;12.110;2023-08-24T10:46:15;97724.44;;;28.96;41.28
82148;BME280;71718;50.480;12.110;2023-08-24T10:53:44;97706.91;;;29.12;39.60
82148;BME280;71718;50.480;12.110;2023-08-24T10:56:11;97702.25;;;29.27;39.18
82148;BME280;71718;50.480;12.110;2023-08-24T10:58:38;97694.59;;;29.34;39.28
82148;BME280;71718;50.480;12.110;2023-08-24T11:01:04;97697.38;;;29.29;40.21
82148;BME280;71718;50.480;12.110;2023-08-24T11:03:34;97687.34;;;29.17;38.55
82148;BME280;71718;50.480;12.110;2023-08-24T11:06:01;97688.13;;;29.26;38.85
82148;BME280;71718;50.480;12.110;2023-08-24T11:08:46;97701.13;;;29.19;38.63
82148;BME280;71718;50.480;12.110;2023-08-24T11:11:23;97694.28;;;29.35;37.29
82148;BME280;71718;50.480;12.110;2023-08-24T11:14:16;97698.69;;;29.48;39.07
82148;BME280;71718;50.480;12.110;2023-08-24T11:16:44;97692.25;;;29.41;39.30
82148;BME280;71718;50.480;12.110;2023-08-24T11:19:12;97702.28;;;29.44;36.15
82148;BME280;71718;50.480;12.110;2023-08-24T11:21:40;97684.09;;;29.54;36.49
82148;BME280;71718;50.480;12.110;2023-08-24T11:24:08;97688.34;;;29.55;39.05
82148;BME280;71718;50.480;12.110;2023-08-24T11:26:39;97695.72;;;29.67;37.71
82148;BME280;71718;50.480;12.110;2023-08-24T11:29:06;97684.25;;;29.75;37.32
82148;BME280;71718;50.480;12.110;2023-08-24T11:31:37;97692.28;;;30.10;39.60
82148;BME280;71718;50.480;12.110;2023-08-24T11:34:08;97684.81;;;30.32;36.13
82148;BME280;71718;50.480;12.110;2023-08-24T11:36:46;97681.72;;;30.22;37.12
82148;BME280;71718;50.480;12.110;2023-08-24T11:39:20;97672.91;;;30.21;35.10
82148;BME280;71718;50.480;12.110;2023-08-24T11:42:03;97664.00;;;30.09;35.85
82148;BME280;71718;50.480;12.110;2023-08-24T11:44:49;97660.22;;;30.18;34.98
82148;BME280;71718;50.480;12.110;2023-08-24T11:47:16;97656.22;;;30.33;36.09
82148;BME280;71718;50.480;12.110;2023-08-24T11:49:42;97659.72;;;30.25;36.20
82148;BME280;71718;50.480;12.110;2023-08-24T11:52:09;97661.63;;;30.24;37.52
82148;BME280;71718;50.480;12.110;2023-08-24T11:54:36;97658.78;;;30.29;36.02
82148;BME280;71718;50.480;12.110;2023-08-24T11:57:06;97656.34;;;30.54;36.48
82148;BME280;71718;50.480;12.110;2023-08-24T11:59:32;97646.81;;;30.73;35.74
82148;BME280;71718;50.480;12.110;2023-08-24T12:01:59;97638.66;;;31.08;34.48
82148;BME280;71718;50.480;12.110;2023-08-24T12:04:25;97635.31;;;31.11;34.08
82148;BME280;71718;50.480;12.110;2023-08-24T12:06:51;97628.28;;;31.06;34.18
82148;BME280;71718;50.480;12.110;2023-08-24T12:09:18;97629.19;;;31.10;33.93
82148;BME280;71718;50.480;12.110;2023-08-24T12:11:44;97640.94;;;31.18;34.31
82148;BME280;71718;50.480;12.110;2023-08-24T12:14:17;97629.69;;;31.04;34.16
82148;BME280;71718;50.480;12.110;2023-08-24T12:16:43;97635.38;;;30.94;35.95
82148;BME280;71718;50.480;12.110;2023-08-24T12:19:10;97643.28;;;30.90;35.59
82148;BME280;71718;50.480;12.110;2023-08-24T12:21:36;97639.88;;;30.81;32.67
82148;BME280;71718;50.480;12.110;2023-08-24T12:24:05;97644.06;;;30.61;36.72
82148;BME280;71718;50.480;12.110;2023-08-24T12:26:33;97644.44;;;30.51;33.74
82148;BME280;71718;50.480;12.110;2023-08-24T12:29:03;97640.88;;;30.30;34.12
82148;BME280;71718;50.480;12.110;2023-08-24T12:31:31;97643.91;;;29.85;33.58
82148;BME280;71718;50.480;12.110;2023-08-24T12:34:02;97639.22;;;29.91;32.44
82148;BME280;71718;50.480;12.110;2023-08-24T12:36:31;97626.81;;;29.95;34.45
82148;BME280;71718;50.480;12.110;2023-08-24T12:38:58;97629.81;;;29.93;32.90
82148;BME280;71718;50.480;12.110;2023-08-24T12:41:24;97631.34;;;30.03;33.93
82148;BME280;71718;50.480;12.110;2023-08-24T12:43:51;97624.59;;;30.14;31.25
82148;BME280;71718;50.480;12.110;2023-08-24T12:46:17;97622.69;;;30.15;32.63
82148;BME280;71718;50.480;12.110;2023-08-24T12:48:44;97623.09;;;30.34;33.94
82148;BME280;71718;50.480;12.110;2023-08-24T12:51:11;97604.88;;;30.36;32.94
82148;BME280;71718;50.480;12.110;2023-08-24T12:53:37;97600.94;;;30.33;35.67
82148;BME280;71718;50.480;12.110;2023-08-24T12:56:04;97595.13;;;30.31;31.82
82148;BME280;71718;50.480;12.110;2023-08-24T12:58:30;97588.44;;;30.25;30.33